Terminal Aerodrome Forecast
Issued by NWS

Home | Current Version | Previous Version | Text Only | Print | Product List | Glossary On
Versions: 1 2 3 4 5 6 7 8 9 10 11 12 13 14 15 16
000
FTUS44 KLZK 252339
TAFHRO
TAF
KHRO 252339Z 2600/2624 18006KT P6SM OVC150
     FM260200 16003KT P6SM OVC250
     FM261400 20004KT P6SM VCSH SCT100 OVC250
      TEMPO 2620/2624 5SM TSRA BR OVC035CB=

USA.gov is the U.S. government's official web portal to all federal, state and local government web resources and services.